Terminal Aerodrome Forecast
Issued by NWS

Home | Current Version | Previous Version | Text Only | Print | Product List | Glossary On
Versions: 1 2 3 4 5 6 7 8 9 10 11 12 13 14 15 16
000
FTUS43 KGLD 161915 AAA
TAFMCK
TAF AMD
KMCK 161915Z 1619/1718 36010G16KT 4SM -RASN SCT003 OVC008
      TEMPO 1619/1621 1/2SM SN OVC003
     FM162100 34010G16KT 2SM -SN OVC015
     FM162300 34011KT 6SM -SHSN SCT003 OVC010
     FM170600 31009KT P6SM VCSH SCT015 BKN040=

USA.gov is the U.S. government's official web portal to all federal, state and local government web resources and services.